createdAt,value
2018-01-02T00:00:52.266Z,52.20
2018-01-02T00:01:57.107Z,52.20
2018-01-02T00:03:02.498Z,52.20
2018-01-02T00:04:07.391Z,52.20
2018-01-02T00:05:12.571Z,52.20
2018-01-02T00:06:17.448Z,52.20
2018-01-02T00:07:22.788Z,52.20
2018-01-02T00:08:28.363Z,52.20
2018-01-02T00:09:33.845Z,52.30
2018-01-02T00:10:38.792Z,52.20
2018-01-02T00:11:43.758Z,52.20
2018-01-02T00:12:48.751Z,52.20
2018-01-02T00:13:53.789Z,52.20
2018-01-02T00:14:58.791Z,52.20
2018-01-02T00:16:03.851Z,52.20
2018-01-02T00:17:08.998Z,52.20
2018-01-02T00:18:13.875Z,52.20
2018-01-02T00:19:19.088Z,52.20
2018-01-02T00:20:25.139Z,52.20
2018-01-02T00:21:30.090Z,52.30
2018-01-02T00:22:34.918Z,52.20
2018-01-02T00:23:39.740Z,52.30
2018-01-02T00:24:44.861Z,52.30
2018-01-02T00:25:49.721Z,52.30
2018-01-02T00:26:54.889Z,52.20
2018-01-02T00:28:00.571Z,52.30
2018-01-02T00:29:05.378Z,52.30
2018-01-02T00:30:11.309Z,52.30
2018-01-02T00:31:16.672Z,52.30
2018-01-02T00:32:21.652Z,52.30
2018-01-02T00:33:26.544Z,52.30
2018-01-02T00:34:31.582Z,52.40
2018-01-02T00:35:36.514Z,52.20
2018-01-02T00:36:41.481Z,52.30
2018-01-02T00:37:46.343Z,52.30
2018-01-02T00:38:51.441Z,52.90
2018-01-02T00:39:56.426Z,52.30
2018-01-02T00:41:01.804Z,52.30
2018-01-02T00:42:07.394Z,52.30
2018-01-02T00:43:13.158Z,52.30
2018-01-02T00:44:18.534Z,52.30
2018-01-02T00:45:23.463Z,52.30
2018-01-02T00:46:28.369Z,52.40
2018-01-02T00:47:33.278Z,52.40
2018-01-02T00:48:38.567Z,52.40
2018-01-02T00:49:43.548Z,52.40
2018-01-02T00:50:48.467Z,52.30
2018-01-02T00:51:54.495Z,52.30
2018-01-02T00:52:59.744Z,52.30
2018-01-02T00:54:04.531Z,52.30
2018-01-02T00:55:09.869Z,52.40
2018-01-02T00:56:14.838Z,52.40
2018-01-02T00:57:19.859Z,52.40
2018-01-02T00:58:24.819Z,52.40
2018-01-02T00:59:29.554Z,52.40
2018-01-02T01:00:34.508Z,52.40
2018-01-02T01:01:39.252Z,52.40
2018-01-02T01:02:44.186Z,52.40
2018-01-02T01:03:48.896Z,52.40
2018-01-02T01:04:53.667Z,52.50
2018-01-02T01:05:58.515Z,53.00
2018-01-02T01:07:03.422Z,52.40
2018-01-02T01:08:08.277Z,52.50
2018-01-02T01:09:13.231Z,52.50
2018-01-02T01:10:18.055Z,52.40
2018-01-02T01:11:22.800Z,52.50
2018-01-02T01:12:27.662Z,53.20
2018-01-02T01:13:32.547Z,52.60
2018-01-02T01:14:37.266Z,52.60
2018-01-02T01:15:42.136Z,52.60
2018-01-02T01:16:46.855Z,52.70
2018-01-02T01:17:51.673Z,52.70
2018-01-02T01:18:56.378Z,52.70
2018-01-02T01:20:01.100Z,52.60
2018-01-02T01:21:06.047Z,52.70
2018-01-02T01:22:10.789Z,52.60
2018-01-02T01:23:15.885Z,52.60
2018-01-02T01:24:20.697Z,52.60
2018-01-02T01:25:25.658Z,52.60
2018-01-02T01:26:30.609Z,52.60
2018-01-02T01:27:35.580Z,53.30
2018-01-02T01:28:40.526Z,52.60
2018-01-02T01:29:45.537Z,52.60
2018-01-02T01:30:50.474Z,52.60
2018-01-02T01:31:55.418Z,52.60
2018-01-02T01:33:00.200Z,52.60
2018-01-02T01:34:05.059Z,52.60
2018-01-02T01:35:09.912Z,52.60
2018-01-02T01:36:14.819Z,52.60
2018-01-02T01:37:19.705Z,52.60
2018-01-02T01:38:24.456Z,52.60
2018-01-02T01:39:29.265Z,52.60
2018-01-02T01:40:34.116Z,52.60
2018-01-02T01:41:38.979Z,52.60
2018-01-02T01:42:43.842Z,52.60
2018-01-02T01:43:48.749Z,52.60
2018-01-02T01:44:53.615Z,52.60
2018-01-02T01:45:58.562Z,52.60
2018-01-02T01:47:03.472Z,52.60
2018-01-02T01:48:08.836Z,52.70
2018-01-02T01:49:14.355Z,52.60
2018-01-02T01:50:19.182Z,52.60
2018-01-02T01:51:23.975Z,52.60
2018-01-02T01:52:29.115Z,52.60
2018-01-02T01:53:34.007Z,52.60
2018-01-02T01:54:38.934Z,52.70
2018-01-02T01:55:43.896Z,52.60
2018-01-02T01:56:48.842Z,52.60
2018-01-02T01:57:53.635Z,52.60
2018-01-02T01:58:58.451Z,52.70
2018-01-02T02:00:03.275Z,52.60
2018-01-02T02:01:08.278Z,52.70
2018-01-02T02:02:13.258Z,52.70
2018-01-02T02:03:18.220Z,52.60
2018-01-02T02:04:22.952Z,52.60
2018-01-02T02:05:27.850Z,52.60
2018-01-02T02:06:33.020Z,52.60
2018-01-02T02:07:37.763Z,52.70
2018-01-02T02:08:42.718Z,52.60
2018-01-02T02:09:47.682Z,52.70
2018-01-02T02:10:52.573Z,52.70
2018-01-02T02:11:57.715Z,52.70
2018-01-02T02:13:02.770Z,52.70
2018-01-02T02:14:07.531Z,52.70
2018-01-02T02:15:12.398Z,52.70
2018-01-02T02:16:17.310Z,52.70
2018-01-02T02:17:22.236Z,52.60
2018-01-02T02:18:27.100Z,52.70
2018-01-02T02:19:31.945Z,52.70
2018-01-02T02:20:36.806Z,52.70
2018-01-02T02:21:41.693Z,52.70
2018-01-02T02:22:46.683Z,52.70
2018-01-02T02:23:51.757Z,52.70
2018-01-02T02:24:56.778Z,52.70
2018-01-02T02:26:01.528Z,52.70
2018-01-02T02:27:06.417Z,52.70
2018-01-02T02:28:11.366Z,52.70
2018-01-02T02:29:16.397Z,52.70
2018-01-02T02:30:21.166Z,52.70
2018-01-02T02:31:26.035Z,52.70
2018-01-02T02:32:30.927Z,52.70
2018-01-02T02:33:35.648Z,52.70
2018-01-02T02:34:40.406Z,52.70
2018-01-02T02:35:45.209Z,52.70
2018-01-02T02:36:50.005Z,52.70
2018-01-02T02:37:54.887Z,52.70
2018-01-02T02:38:59.587Z,52.70
2018-01-02T02:40:04.555Z,52.70
2018-01-02T02:41:09.505Z,52.70
2018-01-02T02:42:14.369Z,52.70
2018-01-02T02:43:19.235Z,52.70
2018-01-02T02:44:23.991Z,52.70
2018-01-02T02:45:28.768Z,53.30
2018-01-02T02:46:33.530Z,52.70
2018-01-02T02:47:38.986Z,52.70
2018-01-02T02:48:44.103Z,52.70
2018-01-02T02:49:49.098Z,52.70
2018-01-02T02:50:54.013Z,52.70
2018-01-02T02:51:58.947Z,52.70
2018-01-02T02:53:03.928Z,52.70
2018-01-02T02:54:08.716Z,52.70
2018-01-02T02:55:13.655Z,52.70
2018-01-02T02:56:18.584Z,52.70
2018-01-02T02:57:23.338Z,52.70
2018-01-02T02:58:28.040Z,52.70
2018-01-02T02:59:32.764Z,52.70
2018-01-02T03:00:37.550Z,52.70
2018-01-02T03:01:42.361Z,52.70
2018-01-02T03:02:47.233Z,52.70
2018-01-02T03:03:51.984Z,52.70
2018-01-02T03:04:56.667Z,52.70
2018-01-02T03:06:02.217Z,52.80
2018-01-02T03:07:07.263Z,52.70
2018-01-02T03:08:12.116Z,52.70
2018-01-02T03:09:16.827Z,52.70
2018-01-02T03:10:21.802Z,52.70
2018-01-02T03:11:26.761Z,52.70
2018-01-02T03:12:31.686Z,52.70
2018-01-02T03:13:36.420Z,52.70
2018-01-02T03:14:41.131Z,52.70
2018-01-02T03:15:46.060Z,52.70
2018-01-02T03:16:50.850Z,52.70
2018-01-02T03:17:55.757Z,52.70
2018-01-02T03:19:00.717Z,52.70
2018-01-02T03:20:05.601Z,52.70
2018-01-02T03:21:10.360Z,52.70
2018-01-02T03:22:15.220Z,52.70
2018-01-02T03:23:20.089Z,52.70
2018-01-02T03:24:25.926Z,52.70
2018-01-02T03:25:30.810Z,52.70
2018-01-02T03:26:35.509Z,52.70
2018-01-02T03:27:40.366Z,52.70
2018-01-02T03:28:45.207Z,52.70
2018-01-02T03:29:49.945Z,52.70
2018-01-02T03:30:54.627Z,52.70
2018-01-02T03:31:59.374Z,52.70
2018-01-02T03:33:04.225Z,52.70
2018-01-02T03:34:09.065Z,52.80
2018-01-02T03:35:13.896Z,52.70
2018-01-02T03:36:18.858Z,52.70
2018-01-02T03:37:23.797Z,52.70
2018-01-02T03:38:28.535Z,52.70
2018-01-02T03:39:33.634Z,52.80
2018-01-02T03:40:38.446Z,52.80
2018-01-02T03:41:43.231Z,52.70
2018-01-02T03:42:49.292Z,52.70
2018-01-02T03:43:54.236Z,52.80
2018-01-02T03:44:59.187Z,52.70
2018-01-02T03:46:04.331Z,52.80
2018-01-02T03:47:09.298Z,52.70
2018-01-02T03:48:14.170Z,52.70
2018-01-02T03:49:19.013Z,52.70
2018-01-02T03:50:23.934Z,52.70
2018-01-02T03:51:29.036Z,52.70
2018-01-02T03:52:33.955Z,52.70
2018-01-02T03:53:38.713Z,52.70
2018-01-02T03:54:43.560Z,52.70
2018-01-02T03:55:48.280Z,52.70
2018-01-02T03:56:53.009Z,52.70
2018-01-02T03:57:57.765Z,53.40
2018-01-02T03:59:02.659Z,52.80
2018-01-02T04:00:07.525Z,52.70
2018-01-02T04:01:13.450Z,52.80
2018-01-02T04:02:18.373Z,52.70
2018-01-02T04:03:23.236Z,52.70
2018-01-02T04:04:28.161Z,52.80
2018-01-02T04:05:33.122Z,52.70
2018-01-02T04:06:37.872Z,52.80
2018-01-02T04:07:42.603Z,52.70
2018-01-02T04:08:47.366Z,52.80
2018-01-02T04:09:52.331Z,52.80
2018-01-02T04:10:57.133Z,52.80
2018-01-02T04:12:01.958Z,52.80
2018-01-02T04:13:06.744Z,52.80
2018-01-02T04:14:11.710Z,52.80
2018-01-02T04:15:16.473Z,52.80
2018-01-02T04:16:21.293Z,52.70
2018-01-02T04:17:26.232Z,52.80
2018-01-02T04:18:31.158Z,52.80
2018-01-02T04:19:37.183Z,52.70
2018-01-02T04:20:42.211Z,52.80
2018-01-02T04:21:47.105Z,52.80
2018-01-02T04:22:51.841Z,52.80
2018-01-02T04:23:56.620Z,52.80
2018-01-02T04:25:01.595Z,52.80
2018-01-02T04:26:06.364Z,52.80
2018-01-02T04:27:11.087Z,52.80
2018-01-02T04:28:15.950Z,52.80
2018-01-02T04:29:20.686Z,52.80
2018-01-02T04:30:25.669Z,52.80
2018-01-02T04:31:30.516Z,52.80
2018-01-02T04:32:35.310Z,52.80
2018-01-02T04:33:40.036Z,52.80
2018-01-02T04:34:44.782Z,52.80
2018-01-02T04:35:49.695Z,53.40
2018-01-02T04:36:54.588Z,52.80
2018-01-02T04:38:00.454Z,52.80
2018-01-02T04:39:05.424Z,52.80
2018-01-02T04:40:10.198Z,52.80
2018-01-02T04:41:15.111Z,52.80
2018-01-02T04:42:20.055Z,52.80
2018-01-02T04:43:24.877Z,52.80
2018-01-02T04:44:30.562Z,52.80
2018-01-02T04:45:35.561Z,52.80
2018-01-02T04:46:40.461Z,52.80
2018-01-02T04:47:45.239Z,52.80
2018-01-02T04:48:50.149Z,52.80
2018-01-02T04:49:54.932Z,52.80
2018-01-02T04:50:59.782Z,52.80
2018-01-02T04:52:04.531Z,52.80
2018-01-02T04:53:09.336Z,52.80
2018-01-02T04:54:14.216Z,52.80
2018-01-02T04:55:19.024Z,52.80
2018-01-02T04:56:25.995Z,52.80
2018-01-02T04:57:30.916Z,52.80
2018-01-02T04:58:35.867Z,52.80
2018-01-02T04:59:40.552Z,52.80
2018-01-02T05:00:45.401Z,52.80
2018-01-02T05:01:50.296Z,52.80
2018-01-02T05:02:55.289Z,52.80
2018-01-02T05:04:00.175Z,52.80
2018-01-02T05:05:05.099Z,52.80
2018-01-02T05:06:10.086Z,52.80
2018-01-02T05:07:15.045Z,52.80
2018-01-02T05:08:19.973Z,52.80
2018-01-02T05:09:24.710Z,52.80
2018-01-02T05:10:29.457Z,52.80
2018-01-02T05:11:34.306Z,52.80
2018-01-02T05:12:39.045Z,52.80
2018-01-02T05:13:43.967Z,52.80
2018-01-02T05:14:49.891Z,52.80
2018-01-02T05:15:54.682Z,52.80
2018-01-02T05:16:59.414Z,52.80
2018-01-02T05:18:04.399Z,52.80
2018-01-02T05:19:09.219Z,52.80
2018-01-02T05:20:14.164Z,52.80
2018-01-02T05:21:19.089Z,52.80
2018-01-02T05:22:23.909Z,52.80
2018-01-02T05:23:28.815Z,52.80
2018-01-02T05:24:33.685Z,52.80
2018-01-02T05:25:38.603Z,52.80
2018-01-02T05:26:43.433Z,52.80
2018-01-02T05:27:48.368Z,52.80
2018-01-02T05:28:53.087Z,52.80
2018-01-02T05:29:58.132Z,52.80
2018-01-02T05:31:03.020Z,52.80
2018-01-02T05:32:07.830Z,52.80
2018-01-02T05:33:13.851Z,52.80
2018-01-02T05:34:18.705Z,52.80
2018-01-02T05:35:23.444Z,52.90
2018-01-02T05:36:28.220Z,52.80
2018-01-02T05:37:33.155Z,52.80
2018-01-02T05:38:37.901Z,52.80
2018-01-02T05:39:42.656Z,52.80
2018-01-02T05:40:47.573Z,52.80
2018-01-02T05:41:52.507Z,52.90
2018-01-02T05:42:57.356Z,52.90
2018-01-02T05:44:02.396Z,52.80
2018-01-02T05:45:07.338Z,52.80
2018-01-02T05:46:12.285Z,52.80
2018-01-02T05:47:17.116Z,52.80
2018-01-02T05:48:22.042Z,53.00
2018-01-02T05:49:27.056Z,52.80
2018-01-02T05:50:31.860Z,52.70
2018-01-02T05:51:37.583Z,52.70
2018-01-02T05:52:42.605Z,52.70
2018-01-02T05:53:48.353Z,52.70
2018-01-02T05:54:53.069Z,52.60
2018-01-02T05:55:57.903Z,52.60
2018-01-02T05:57:02.876Z,52.50
2018-01-02T05:58:07.944Z,52.60
2018-01-02T05:59:12.905Z,52.60
2018-01-02T06:00:17.765Z,52.50
2018-01-02T06:01:22.668Z,52.60
2018-01-02T06:02:27.424Z,52.50
2018-01-02T06:03:32.293Z,52.50
2018-01-02T06:04:37.140Z,52.50
2018-01-02T06:05:42.032Z,52.50
2018-01-02T06:06:46.896Z,52.50
2018-01-02T06:07:51.844Z,52.50
2018-01-02T06:08:56.753Z,52.50
2018-01-02T06:10:02.375Z,52.50
2018-01-02T06:11:07.262Z,52.40
2018-01-02T06:12:12.180Z,52.50
2018-01-02T06:13:16.969Z,52.40
2018-01-02T06:14:21.692Z,52.40
2018-01-02T06:15:26.656Z,52.50
2018-01-02T06:16:31.537Z,52.50
2018-01-02T06:17:36.453Z,52.60
2018-01-02T06:18:41.391Z,52.50
2018-01-02T06:19:46.170Z,52.50
2018-01-02T06:20:51.066Z,52.50
2018-01-02T06:21:55.973Z,52.50
2018-01-02T06:23:00.887Z,52.50
2018-01-02T06:24:05.811Z,52.50
2018-01-02T06:25:10.727Z,52.50
2018-01-02T06:26:15.635Z,52.50
2018-01-02T06:27:20.529Z,52.50
2018-01-02T06:28:26.315Z,52.50
2018-01-02T06:29:31.040Z,52.50
2018-01-02T06:30:35.866Z,52.50
2018-01-02T06:31:40.847Z,52.50
2018-01-02T06:32:45.795Z,52.50
2018-01-02T06:33:50.737Z,52.50
2018-01-02T06:34:55.687Z,52.60
2018-01-02T06:36:00.628Z,52.60
2018-01-02T06:37:05.511Z,52.60
2018-01-02T06:38:10.357Z,52.60
2018-01-02T06:39:15.183Z,52.60
2018-01-02T06:40:19.940Z,52.60
2018-01-02T06:41:24.842Z,52.60
2018-01-02T06:42:29.763Z,52.60
2018-01-02T06:43:34.771Z,52.60
2018-01-02T06:44:39.749Z,52.60
2018-01-02T06:45:44.784Z,52.60
2018-01-02T06:46:50.343Z,52.60
2018-01-02T06:47:55.143Z,52.60
2018-01-02T06:48:59.984Z,52.60
2018-01-02T06:50:04.959Z,52.60
2018-01-02T06:51:09.875Z,52.60
2018-01-02T06:52:14.730Z,52.60
2018-01-02T06:53:19.462Z,52.60
2018-01-02T06:54:24.375Z,52.60
2018-01-02T06:55:29.330Z,52.60
2018-01-02T06:56:34.093Z,52.60
2018-01-02T06:57:38.837Z,52.60
2018-01-02T06:58:43.957Z,52.60
2018-01-02T06:59:48.879Z,52.60
2018-01-02T07:00:53.662Z,52.60
2018-01-02T07:01:58.807Z,52.60
2018-01-02T07:03:04.518Z,52.60
2018-01-02T07:04:09.303Z,52.60
2018-01-02T07:05:14.621Z,52.60
2018-01-02T07:06:19.466Z,52.60
2018-01-02T07:07:24.324Z,52.60
2018-01-02T07:08:31.518Z,52.60
2018-01-02T07:09:36.506Z,52.60
2018-01-02T07:10:41.296Z,52.60
2018-01-02T07:11:46.185Z,52.60
2018-01-02T07:12:51.150Z,52.60
2018-01-02T07:13:56.033Z,52.60
2018-01-02T07:15:00.869Z,52.60
2018-01-02T07:16:05.813Z,52.70
2018-01-02T07:17:12.288Z,52.60
2018-01-02T07:18:17.103Z,52.60
2018-01-02T07:19:21.898Z,52.60
2018-01-02T07:20:26.663Z,52.70
2018-01-02T07:21:31.666Z,52.60
2018-01-02T07:22:36.469Z,52.60
2018-01-02T07:23:41.385Z,52.60
2018-01-02T07:24:46.310Z,52.60
2018-01-02T07:25:51.248Z,52.60
2018-01-02T07:26:56.175Z,52.60
2018-01-02T07:28:01.169Z,52.60
2018-01-02T07:29:06.174Z,52.60
2018-01-02T07:30:10.958Z,52.60
2018-01-02T07:31:15.933Z,53.20
2018-01-02T07:32:20.988Z,52.60
2018-01-02T07:33:25.741Z,52.60
2018-01-02T07:34:30.672Z,52.60
2018-01-02T07:35:35.600Z,52.60
2018-01-02T07:36:52.249Z,52.60
2018-01-02T07:37:57.157Z,52.60
2018-01-02T07:39:01.874Z,52.60
2018-01-02T07:40:06.824Z,52.60
2018-01-02T07:41:11.915Z,52.60
2018-01-02T07:42:16.729Z,52.50
2018-01-02T07:43:21.663Z,52.50
2018-01-02T07:44:26.503Z,52.50
2018-01-02T07:45:31.596Z,52.50
2018-01-02T07:46:36.387Z,52.40
2018-01-02T07:47:41.133Z,52.40
2018-01-02T07:48:46.071Z,52.40
2018-01-02T07:49:50.849Z,52.60
2018-01-02T07:50:55.983Z,52.20
2018-01-02T07:52:00.854Z,51.10
2018-01-02T07:53:05.835Z,50.40
2018-01-02T07:54:10.698Z,49.80
2018-01-02T07:55:15.922Z,49.40
2018-01-02T07:56:23.538Z,49.20
2018-01-02T07:57:28.560Z,48.90
2018-01-02T07:58:33.821Z,48.50
2018-01-02T07:59:38.936Z,48.20
2018-01-02T08:00:43.865Z,48.00
2018-01-02T08:01:48.735Z,48.20
2018-01-02T08:02:53.621Z,48.50
2018-01-02T08:03:58.403Z,48.70
2018-01-02T08:05:03.346Z,49.10
2018-01-02T08:06:08.227Z,49.30
2018-01-02T08:07:13.105Z,49.50
2018-01-02T08:08:18.000Z,49.60
2018-01-02T08:09:22.961Z,49.70
2018-01-02T08:10:27.920Z,49.90
2018-01-02T08:11:32.899Z,50.00
2018-01-02T08:12:38.416Z,50.00
2018-01-02T08:13:43.901Z,50.10
2018-01-02T08:14:48.750Z,50.10
2018-01-02T08:15:53.744Z,50.10
2018-01-02T08:16:59.278Z,50.20
2018-01-02T08:18:04.270Z,50.20
2018-01-02T08:19:09.344Z,50.30
2018-01-02T08:20:14.333Z,50.30
2018-01-02T08:21:19.374Z,50.30
2018-01-02T08:22:24.118Z,50.30
2018-01-02T08:23:28.837Z,50.30
2018-01-02T08:24:33.646Z,50.40
2018-01-02T08:25:38.675Z,50.40
2018-01-02T08:26:43.386Z,50.40
2018-01-02T08:27:48.322Z,50.40
2018-01-02T08:28:53.170Z,50.40
2018-01-02T08:29:58.153Z,50.40
2018-01-02T08:31:04.200Z,50.50
2018-01-02T08:32:09.281Z,50.40
2018-01-02T08:33:14.112Z,50.50
2018-01-02T08:34:20.032Z,50.50
2018-01-02T08:35:24.939Z,50.50
2018-01-02T08:36:30.373Z,50.50
2018-01-02T08:37:35.207Z,50.60
2018-01-02T08:38:40.064Z,50.50
2018-01-02T08:39:44.951Z,50.60
2018-01-02T08:40:49.881Z,50.70
2018-01-02T08:41:54.931Z,50.70
2018-01-02T08:42:59.762Z,50.60
2018-01-02T08:44:04.578Z,50.60
2018-01-02T08:45:09.474Z,50.70
2018-01-02T08:46:14.279Z,50.60
2018-01-02T08:47:18.986Z,50.80
2018-01-02T08:48:23.818Z,50.80
2018-01-02T08:49:29.985Z,50.80
2018-01-02T08:50:34.880Z,50.80
2018-01-02T08:51:40.710Z,50.80
2018-01-02T08:52:50.685Z,50.80
2018-01-02T08:54:00.539Z,50.60
2018-01-02T08:55:11.966Z,50.80
2018-01-02T08:56:23.700Z,50.80
2018-01-02T08:57:33.677Z,50.90
2018-01-02T08:58:46.981Z,51.00
2018-01-02T08:59:57.505Z,51.00
2018-01-02T09:01:08.266Z,50.90
2018-01-02T09:02:13.820Z,50.90
2018-01-02T09:03:18.745Z,50.90
2018-01-02T09:04:23.537Z,51.00
2018-01-02T09:05:28.568Z,51.10
2018-01-02T09:06:33.609Z,51.10
2018-01-02T09:07:38.334Z,51.10
2018-01-02T09:08:43.256Z,51.30
2018-01-02T09:09:48.016Z,51.40
2018-01-02T09:10:52.945Z,51.50
2018-01-02T09:11:58.077Z,51.60
2018-01-02T09:13:03.017Z,51.50
2018-01-02T09:14:07.947Z,51.60
2018-01-02T09:15:12.742Z,51.50
2018-01-02T09:16:17.712Z,51.40
2018-01-02T09:17:22.601Z,51.40
2018-01-02T09:18:27.498Z,51.30
2018-01-02T09:19:32.604Z,51.30
2018-01-02T09:20:37.489Z,51.30
2018-01-02T09:21:42.362Z,51.50
2018-01-02T09:22:47.271Z,51.40
2018-01-02T09:23:52.193Z,51.40
2018-01-02T09:24:57.175Z,51.50
2018-01-02T09:26:02.190Z,51.40
2018-01-02T09:27:06.990Z,51.40
2018-01-02T09:28:11.971Z,51.40
2018-01-02T09:29:16.876Z,51.60
2018-01-02T09:30:22.222Z,51.80
2018-01-02T09:31:27.090Z,51.90
2018-01-02T09:32:31.849Z,52.00
2018-01-02T09:33:36.798Z,52.20
2018-01-02T09:34:41.720Z,52.20
2018-01-02T09:35:46.649Z,52.30
2018-01-02T09:36:51.653Z,52.30
2018-01-02T09:37:56.477Z,52.30
2018-01-02T09:39:01.897Z,52.20
2018-01-02T09:40:06.777Z,52.20
2018-01-02T09:41:12.345Z,52.30
2018-01-02T09:42:17.147Z,52.30
2018-01-02T09:43:21.909Z,52.30
2018-01-02T09:44:26.825Z,52.30
2018-01-02T09:45:31.634Z,52.40
2018-01-02T09:46:36.521Z,52.40
2018-01-02T09:47:41.507Z,52.40
2018-01-02T09:48:47.719Z,52.50
2018-01-02T09:49:52.779Z,52.60
2018-01-02T09:50:57.818Z,52.70
2018-01-02T09:52:03.190Z,52.70
2018-01-02T09:53:08.280Z,52.90
2018-01-02T09:54:13.172Z,52.80
2018-01-02T09:55:18.087Z,52.90
2018-01-02T09:56:23.150Z,52.90
2018-01-02T09:57:28.107Z,53.00
2018-01-02T09:58:33.584Z,52.90
2018-01-02T09:59:38.695Z,52.90
2018-01-02T10:00:43.787Z,52.90
2018-01-02T10:01:48.697Z,52.90
2018-01-02T10:02:53.638Z,53.00
2018-01-02T10:03:58.656Z,52.90
2018-01-02T10:05:04.027Z,52.90
2018-01-02T10:06:09.745Z,52.70
2018-01-02T10:07:14.794Z,52.60
2018-01-02T10:08:20.137Z,52.40
2018-01-02T10:09:25.125Z,52.40
2018-01-02T10:10:30.221Z,52.30
2018-01-02T10:11:35.382Z,52.10
2018-01-02T10:12:40.488Z,52.00
2018-01-02T10:13:45.552Z,51.90
2018-01-02T10:14:53.547Z,51.80
2018-01-02T10:15:58.549Z,51.80
2018-01-02T10:17:03.536Z,51.70
2018-01-02T10:18:08.401Z,51.70
2018-01-02T10:19:13.215Z,51.60
2018-01-02T10:20:18.091Z,51.60
2018-01-02T10:21:23.789Z,51.70
2018-01-02T10:22:28.725Z,51.70
2018-01-02T10:23:33.551Z,51.70
2018-01-02T10:24:38.595Z,51.60
2018-01-02T10:25:43.746Z,51.60
2018-01-02T10:26:48.766Z,51.60
2018-01-02T10:27:53.631Z,51.70
2018-01-02T10:28:58.376Z,51.60
2018-01-02T10:30:03.326Z,51.70
2018-01-02T10:31:08.294Z,51.70
2018-01-02T10:32:13.308Z,51.70
2018-01-02T10:33:18.348Z,51.70
2018-01-02T10:34:23.213Z,51.70
2018-01-02T10:35:28.204Z,51.70
2018-01-02T10:36:33.864Z,51.70
2018-01-02T10:37:39.383Z,51.70
2018-01-02T10:38:44.243Z,51.80
2018-01-02T10:39:49.206Z,52.40
2018-01-02T10:40:54.000Z,51.80
2018-01-02T10:41:59.067Z,51.80
2018-01-02T10:43:04.061Z,51.80
2018-01-02T10:44:09.134Z,51.80
2018-01-02T10:45:14.188Z,51.80
2018-01-02T10:46:19.018Z,51.90
2018-01-02T10:47:24.167Z,51.90
2018-01-02T10:48:29.174Z,51.90
2018-01-02T10:49:34.307Z,51.90
2018-01-02T10:50:39.308Z,51.90
2018-01-02T10:51:44.373Z,51.90
2018-01-02T10:52:49.372Z,52.00
2018-01-02T10:53:54.246Z,52.00
2018-01-02T10:54:59.115Z,52.10
2018-01-02T10:56:05.067Z,52.10
2018-01-02T10:57:09.891Z,52.10
2018-01-02T10:58:14.744Z,52.10
2018-01-02T10:59:19.677Z,52.00
2018-01-02T11:00:24.796Z,51.90
2018-01-02T11:01:30.123Z,51.90
2018-01-02T11:02:35.292Z,51.70
2018-01-02T11:03:40.391Z,51.70
2018-01-02T11:04:45.563Z,51.70
2018-01-02T11:05:50.627Z,51.50
2018-01-02T11:06:56.174Z,51.60
2018-01-02T11:08:00.976Z,51.40
2018-01-02T11:09:06.145Z,51.30
2018-01-02T11:10:11.192Z,51.40
2018-01-02T11:11:16.310Z,51.30
2018-01-02T11:12:21.425Z,51.30
2018-01-02T11:13:26.608Z,51.20
2018-01-02T11:14:32.236Z,51.20
2018-01-02T11:15:37.599Z,51.20
2018-01-02T11:16:42.613Z,51.20
2018-01-02T11:17:47.416Z,51.20
2018-01-02T11:18:52.294Z,51.10
2018-01-02T11:19:57.094Z,51.10
2018-01-02T11:21:02.065Z,51.10
2018-01-02T11:22:07.063Z,51.30
2018-01-02T11:23:11.904Z,51.40
2018-01-02T11:24:16.863Z,51.50
2018-01-02T11:25:21.740Z,51.50
2018-01-02T11:26:26.673Z,51.60
2018-01-02T11:27:31.430Z,51.60
2018-01-02T11:28:36.209Z,51.70
2018-01-02T11:29:41.016Z,51.80
2018-01-02T11:30:46.087Z,51.80
2018-01-02T11:31:50.861Z,51.90
2018-01-02T11:32:55.693Z,51.90
2018-01-02T11:34:00.667Z,52.00
2018-01-02T11:35:05.741Z,52.00
2018-01-02T11:36:10.503Z,52.10
2018-01-02T11:37:15.340Z,52.10
2018-01-02T11:38:20.343Z,52.20
2018-01-02T11:39:25.534Z,52.20
2018-01-02T11:40:30.473Z,52.20
2018-01-02T11:41:35.316Z,52.20
2018-01-02T11:42:40.318Z,52.30
2018-01-02T11:43:45.500Z,52.30
2018-01-02T11:44:50.611Z,52.30
2018-01-02T11:45:55.636Z,52.30
2018-01-02T11:47:00.525Z,52.40
2018-01-02T11:48:05.414Z,52.40
2018-01-02T11:49:10.519Z,52.40
2018-01-02T11:50:16.243Z,52.50
2018-01-02T11:51:21.283Z,52.50
2018-01-02T11:52:26.672Z,52.40
2018-01-02T11:53:32.223Z,52.50
2018-01-02T11:54:37.469Z,52.60
2018-01-02T11:55:42.502Z,52.70
2018-01-02T11:56:47.415Z,53.20
2018-01-02T11:57:52.497Z,52.60
2018-01-02T11:58:57.730Z,52.70
2018-01-02T12:00:03.505Z,52.60
2018-01-02T12:01:08.553Z,52.60
2018-01-02T12:02:13.570Z,52.60
2018-01-02T12:03:18.763Z,52.60
2018-01-02T12:04:24.051Z,52.60
2018-01-02T12:05:29.302Z,52.50
2018-01-02T12:06:34.232Z,52.50
2018-01-02T12:07:39.779Z,52.50
2018-01-02T12:08:45.115Z,52.50
2018-01-02T12:09:50.120Z,52.50
2018-01-02T12:10:55.143Z,52.50
2018-01-02T12:12:00.193Z,52.50
2018-01-02T12:13:05.296Z,52.60
2018-01-02T12:14:10.438Z,52.60
2018-01-02T12:15:15.463Z,52.60
2018-01-02T12:16:20.638Z,52.70
2018-01-02T12:17:26.855Z,52.70
2018-01-02T12:18:31.801Z,52.70
2018-01-02T12:19:36.908Z,52.80
2018-01-02T12:20:42.036Z,52.80
2018-01-02T12:21:47.071Z,52.90
2018-01-02T12:22:52.320Z,52.90
2018-01-02T12:23:57.303Z,52.90
2018-01-02T12:25:02.525Z,53.00
2018-01-02T12:26:07.644Z,53.00
2018-01-02T12:27:12.799Z,53.00
2018-01-02T12:28:18.073Z,52.90
2018-01-02T12:29:23.201Z,52.90
2018-01-02T12:30:28.246Z,52.90
2018-01-02T12:31:33.234Z,52.90
2018-01-02T12:32:38.261Z,52.90
2018-01-02T12:33:43.313Z,52.90
2018-01-02T12:34:48.172Z,53.50
2018-01-02T12:35:53.265Z,52.80
2018-01-02T12:36:58.323Z,52.90
2018-01-02T12:38:03.396Z,52.90
2018-01-02T12:39:08.362Z,52.90
2018-01-02T12:40:13.362Z,52.90
2018-01-02T12:41:18.104Z,52.90
2018-01-02T12:42:22.866Z,52.80
2018-01-02T12:43:27.978Z,52.90
2018-01-02T12:44:32.860Z,52.90
2018-01-02T12:45:37.632Z,53.10
2018-01-02T12:46:44.015Z,53.10
2018-01-02T12:47:48.886Z,53.10
2018-01-02T12:48:53.696Z,53.00
2018-01-02T12:49:58.514Z,52.80
2018-01-02T12:51:03.579Z,52.80
2018-01-02T12:52:08.759Z,52.80
2018-01-02T12:53:13.876Z,52.80
2018-01-02T12:54:19.133Z,52.90
2018-01-02T12:55:23.994Z,52.90
2018-01-02T12:56:29.080Z,52.90
2018-01-02T12:57:34.157Z,52.90
2018-01-02T12:58:38.951Z,52.90
2018-01-02T12:59:44.083Z,53.00
2018-01-02T13:00:49.406Z,53.10
2018-01-02T13:01:54.563Z,53.00
2018-01-02T13:02:59.587Z,53.00
2018-01-02T13:04:04.594Z,53.00
2018-01-02T13:05:09.769Z,53.00
2018-01-02T13:06:14.977Z,53.00
2018-01-02T13:07:20.125Z,53.10
2018-01-02T13:08:24.977Z,53.20
2018-01-02T13:09:29.833Z,53.10
2018-01-02T13:10:35.062Z,53.20
2018-01-02T13:11:40.105Z,53.20
2018-01-02T13:12:45.299Z,53.20
2018-01-02T13:13:50.196Z,53.10
2018-01-02T13:14:55.274Z,53.30
2018-01-02T13:16:00.514Z,53.20
2018-01-02T13:17:05.443Z,53.30
2018-01-02T13:18:10.506Z,53.50
2018-01-02T13:19:15.490Z,53.60
2018-01-02T13:20:20.498Z,53.80
2018-01-02T13:21:25.393Z,53.80
2018-01-02T13:22:30.450Z,53.60
2018-01-02T13:23:35.621Z,53.50
2018-01-02T13:24:40.468Z,53.40
2018-01-02T13:25:45.451Z,53.50
2018-01-02T13:26:50.431Z,53.50
2018-01-02T13:27:55.816Z,53.60
2018-01-02T13:29:00.863Z,53.50
2018-01-02T13:30:05.751Z,53.70
2018-01-02T13:31:10.495Z,53.80
2018-01-02T13:32:15.410Z,53.70
2018-01-02T13:33:20.191Z,53.80
2018-01-02T13:34:25.120Z,53.90
2018-01-02T13:35:29.981Z,53.90
2018-01-02T13:36:34.918Z,54.00
2018-01-02T13:37:39.841Z,54.00
2018-01-02T13:38:44.708Z,54.10
2018-01-02T13:39:49.566Z,54.10
2018-01-02T13:40:54.517Z,54.10
2018-01-02T13:41:59.432Z,54.20
2018-01-02T13:43:04.465Z,54.20
2018-01-02T13:44:09.489Z,54.20
2018-01-02T13:45:14.361Z,54.30
2018-01-02T13:46:19.688Z,54.30
2018-01-02T13:47:24.987Z,54.30
2018-01-02T13:48:29.776Z,54.40
2018-01-02T13:49:34.578Z,54.40
2018-01-02T13:50:39.471Z,54.40
2018-01-02T13:51:44.488Z,54.30
2018-01-02T13:52:49.551Z,54.50
2018-01-02T13:53:54.526Z,54.50
2018-01-02T13:54:59.575Z,54.50
2018-01-02T13:56:04.586Z,54.40
2018-01-02T13:57:09.541Z,54.40
2018-01-02T13:58:14.425Z,54.80